Time;durP1;ratioP1;P1;durP2;ratioP2;P2;SDS_P1;SDS_P2;PMS_P1;PMS_P2;Temp;Humidity;BMP_temperature;BMP_pressure;BME280_temperature;BME280_humidity;BME280_pressure;Samples;Min_cycle;Max_cycle;Signal;HPM_P1;HPM_P2
2021/12/27 00:00:16;;;;;;;8.47;5.60;;;-2.20;99.90;;;-1.32;100.00;-19681.84;5032782;28;20219;-72
2021/12/27 00:02:46;;;;;;;7.83;5.40;;;-2.20;99.90;;;-1.25;100.00;-19684.25;5020775;28;20201;-71
2021/12/27 00:05:15;;;;;;;7.30;5.10;;;-2.20;99.90;;;-1.36;100.00;-19680.50;4990967;28;20265;-72
2021/12/27 00:07:48;;;;;;;7.97;5.37;;;-2.10;99.90;;;-1.36;100.00;-19680.50;4998521;28;20226;-71
2021/12/27 00:10:17;;;;;;;7.90;5.57;;;-2.20;99.90;;;-1.38;100.00;-19679.81;5009360;28;20228;-69
2021/12/27 00:12:45;;;;;;;7.13;5.37;;;-2.20;99.90;;;-1.33;100.00;-19681.50;5008386;28;20205;-71
2021/12/27 00:15:16;;;;;;;8.97;5.40;;;-2.20;99.90;;;-1.32;100.00;-19682.03;4993016;28;20513;-72
2021/12/27 00:17:46;;;;;;;8.20;5.70;;;-2.10;99.90;;;-1.16;100.00;-19687.16;5009076;28;20317;-71
2021/12/27 00:20:17;;;;;;;7.20;5.57;;;-2.10;99.90;;;-1.34;100.00;-19681.34;5009044;28;20280;-70
2021/12/27 00:22:47;;;;;;;8.03;5.23;;;-2.10;99.90;;;-1.31;100.00;-19682.38;5011971;28;20273;-70
2021/12/27 00:25:17;;;;;;;8.77;5.30;;;-2.10;99.90;;;-1.23;100.00;-19684.94;5011833;28;20224;-70
2021/12/27 00:27:46;;;;;;;9.97;6.20;;;-2.10;99.90;;;-1.33;100.00;-19681.69;5011712;28;20197;-68
2021/12/27 00:30:18;;;;;;;7.13;5.00;;;-2.10;99.90;;;-1.32;100.00;-19681.84;5011816;28;20320;-60
2021/12/27 00:32:46;;;;;;;10.17;6.30;;;-2.10;99.90;;;-1.20;100.00;-19685.78;5011116;28;20264;-59
2021/12/27 00:35:18;;;;;;;8.10;5.67;;;-2.10;99.90;;;-1.13;100.00;-19688.34;5017644;28;20261;-60
2021/12/27 00:37:47;;;;;;;7.83;5.17;;;-2.10;99.90;;;-1.17;100.00;-19686.81;5012088;28;20206;-70
2021/12/27 00:40:16;;;;;;;9.60;5.57;;;-2.00;99.90;;;-1.32;100.00;-19681.84;5012141;28;20320;-71
2021/12/27 00:42:44;;;;;;;8.30;5.80;;;-2.10;99.90;;;-1.23;100.00;-19684.78;5012163;28;20673;-70
2021/12/27 00:45:13;;;;;;;7.67;5.30;;;-2.00;99.90;;;-1.15;100.00;-19687.66;5010710;28;20965;-70
2021/12/27 00:47:43;;;;;;;7.80;5.80;;;-2.00;99.90;;;-1.23;100.00;-19684.78;5012128;28;20880;-70
2021/12/27 00:50:12;;;;;;;8.73;5.73;;;-2.00;99.90;;;-1.25;100.00;-19684.25;5012099;28;20253;-71
2021/12/27 00:52:40;;;;;;;8.80;5.60;;;-2.10;99.90;;;-1.16;100.00;-19687.31;5012112;28;20613;-70
2021/12/27 00:55:12;;;;;;;8.43;5.70;;;-2.00;99.90;;;-1.23;100.00;-19684.94;5011569;28;20292;-70
2021/12/27 00:57:41;;;;;;;7.37;5.17;;;-2.00;99.90;;;-1.09;100.00;-19689.72;5012139;28;20948;-72
2021/12/27 01:00:13;;;;;;;8.77;6.10;;;-2.00;99.90;;;-1.22;100.00;-19685.44;5012606;28;20639;-71
2021/12/27 01:02:44;;;;;;;10.37;5.80;;;-2.00;99.90;;;-1.25;100.00;-19684.25;5016881;28;20676;-73
2021/12/27 01:05:14;;;;;;;7.40;5.60;;;-2.00;99.90;;;-1.15;100.00;-19687.50;4996180;28;20242;-72
2021/12/27 01:07:42;;;;;;;8.83;5.80;;;-2.00;99.90;;;-1.24;100.00;-19684.59;5011578;28;20236;-70
2021/12/27 01:13:17;;;;;;;8.67;5.33;;;-1.90;99.90;;;-1.18;100.00;-19686.66;5006699;28;20257;-71
2021/12/27 01:15:52;;;;;;;8.80;5.90;;;-1.90;99.90;;;-1.09;100.00;-19689.56;5011128;28;20214;-70
2021/12/27 01:18:22;;;;;;;9.17;6.00;;;-1.90;99.90;;;-1.16;100.00;-19687.31;5011250;28;20208;-70
2021/12/27 01:20:50;;;;;;;7.97;5.70;;;-1.90;99.90;;;-0.88;100.00;-19696.72;5010913;28;20297;-71
2021/12/27 01:23:18;;;;;;;9.43;6.03;;;-1.80;99.90;;;-0.88;100.00;-19696.91;5011705;28;20209;-70
2021/12/27 01:25:46;;;;;;;8.93;5.60;;;-1.80;99.90;;;-0.83;100.00;-19698.59;5002542;28;20293;-71
2021/12/27 01:28:16;;;;;;;9.73;6.37;;;-1.70;99.90;;;-1.04;100.00;-19691.25;4999106;28;20204;-71
2021/12/27 01:30:48;;;;;;;7.97;6.00;;;-1.80;99.90;;;-1.08;100.00;-19690.06;5010680;28;20829;-71
2021/12/27 01:33:17;;;;;;;8.80;6.07;;;-1.80;99.90;;;-0.99;100.00;-19692.97;5009564;28;20297;-71
2021/12/27 01:35:48;;;;;;;8.93;6.10;;;-1.80;99.90;;;-1.04;100.00;-19691.44;5011015;28;20222;-71
2021/12/27 01:38:17;;;;;;;8.63;6.57;;;-1.80;99.90;;;-0.88;100.00;-19696.91;5010873;28;20194;-71
2021/12/27 01:40:50;;;;;;;8.20;5.77;;;-1.70;99.90;;;-0.88;100.00;-19696.91;5015310;28;20197;-71
2021/12/27 01:43:22;;;;;;;8.40;5.80;;;-1.70;99.90;;;-0.89;100.00;-19696.56;5010520;28;20646;-72
2021/12/27 01:45:54;;;;;;;10.07;6.17;;;-1.70;99.90;;;-0.89;100.00;-19696.38;5014207;28;20241;-71
2021/12/27 01:48:28;;;;;;;9.17;5.90;;;-1.70;99.90;;;-0.85;100.00;-19697.75;5010566;28;20197;-71
2021/12/27 01:51:01;;;;;;;8.20;6.07;;;-1.70;99.90;;;-0.93;100.00;-19695.19;5011380;28;20289;-71
2021/12/27 01:53:32;;;;;;;9.00;6.23;;;-1.70;99.90;;;-0.93;100.00;-19695.19;5010751;28;20329;-71
2021/12/27 01:56:02;;;;;;;8.63;6.10;;;-1.70;99.90;;;-0.89;100.00;-19696.38;5010145;28;20222;-70
2021/12/27 01:58:31;;;;;;;9.30;5.77;;;-1.70;99.90;;;-0.86;100.00;-19697.41;5012140;28;20208;-69
2021/12/27 02:01:03;;;;;;;9.27;6.43;;;-1.40;99.90;;;-0.86;100.00;-19697.59;5010134;28;20207;-71
2021/12/27 02:03:34;;;;;;;10.07;6.50;;;-1.70;99.90;;;-0.91;100.00;-19695.72;5014897;28;20198;-71
2021/12/27 02:06:07;;;;;;;8.93;5.77;;;-1.70;99.90;;;-1.01;100.00;-19692.47;5013044;28;20208;-71
2021/12/27 02:08:39;;;;;;;8.50;6.00;;;-1.70;99.90;;;-0.96;100.00;-19694.16;5011636;28;20550;-69
2021/12/27 02:11:10;;;;;;;9.43;6.07;;;-1.60;99.90;;;-0.98;100.00;-19693.47;5011839;28;20222;-70
2021/12/27 02:13:42;;;;;;;10.00;6.13;;;-1.60;99.90;;;-0.65;100.00;-19704.59;5012423;28;20279;-69
2021/12/27 02:16:13;;;;;;;9.90;6.23;;;-1.60;99.90;;;-0.87;100.00;-19697.06;5010304;28;20215;-70
2021/12/27 02:18:44;;;;;;;10.47;6.83;;;-1.60;99.90;;;-0.78;100.00;-19700.16;5009839;28;20260;-71
2021/12/27 02:21:14;;;;;;;9.87;6.80;;;-1.60;99.90;;;-0.83;100.00;-19698.44;5009116;28;20272;-70
2021/12/27 02:23:43;;;;;;;11.07;6.50;;;-1.60;99.90;;;-0.92;100.00;-19695.53;5021062;28;20191;-69
2021/12/27 02:26:12;;;;;;;8.67;6.73;;;-1.60;99.90;;;-0.80;100.00;-19699.47;5019995;28;20214;-70
2021/12/27 02:28:41;;;;;;;9.00;5.83;;;-1.50;99.90;;;-0.84;100.00;-19698.28;5015062;28;20298;-70
2021/12/27 02:31:10;;;;;;;9.13;6.40;;;-1.50;99.90;;;-0.68;100.00;-19703.75;5011566;28;20203;-70
2021/12/27 02:33:39;;;;;;;9.20;7.03;;;-1.50;99.90;;;-0.74;100.00;-19701.53;5011209;28;20257;-72
2021/12/27 02:36:11;;;;;;;9.97;7.00;;;-1.50;99.90;;;-0.71;100.00;-19702.72;5012689;28;20544;-71
2021/12/27 02:38:43;;;;;;;9.70;6.73;;;-1.50;99.90;;;-0.84;100.00;-19698.09;5012938;28;20775;-70
2021/12/27 02:41:12;;;;;;;7.87;6.60;;;-1.50;99.90;;;-0.75;100.00;-19701.34;4999315;28;20233;-71
2021/12/27 02:43:42;;;;;;;9.37;7.23;;;-1.50;99.90;;;-0.69;100.00;-19703.41;5010534;28;20207;-70
2021/12/27 02:46:13;;;;;;;9.50;6.53;;;-1.40;99.90;;;-0.57;100.00;-19707.50;5010681;28;20217;-69
2021/12/27 02:48:46;;;;;;;11.20;7.33;;;-1.40;99.90;;;-0.69;100.00;-19703.41;5010735;28;20191;-70
2021/12/27 02:51:18;;;;;;;8.50;6.50;;;-1.40;99.90;;;-0.59;100.00;-19706.66;5001924;28;20195;-70
2021/12/27 02:53:49;;;;;;;8.70;6.77;;;-1.40;99.90;;;-0.71;100.00;-19702.72;5009660;28;20249;-69
2021/12/27 02:56:19;;;;;;;10.00;6.97;;;-1.40;99.90;;;-0.64;100.00;-19705.09;5010183;28;20275;-70
2021/12/27 02:58:48;;;;;;;9.67;6.67;;;-1.40;99.90;;;-0.63;100.00;-19705.47;5009980;28;20234;-70
2021/12/27 03:01:21;;;;;;;9.23;6.67;;;-1.40;99.90;;;-0.69;100.00;-19703.41;5009824;28;20286;-70
2021/12/27 03:03:49;;;;;;;12.70;6.87;;;-1.30;99.90;;;-0.71;100.00;-19702.56;5010036;28;20203;-70
2021/12/27 03:06:18;;;;;;;10.40;7.23;;;-1.40;99.90;;;-0.73;100.00;-19701.88;5012751;28;20744;-69
2021/12/27 03:08:49;;;;;;;9.20;6.47;;;-1.40;99.90;;;-0.77;100.00;-19700.50;5010553;28;20238;-70
2021/12/27 03:11:17;;;;;;;9.40;7.03;;;-1.40;99.90;;;-0.76;100.00;-19700.84;5009736;28;20219;-70
2021/12/27 03:13:50;;;;;;;9.57;7.37;;;-1.40;99.90;;;-0.75;100.00;-19701.34;5009056;28;20245;-69
2021/12/27 03:16:22;;;;;;;9.50;7.50;;;-1.40;99.90;;;-0.53;100.00;-19708.88;5009379;28;20199;-70
2021/12/27 03:18:53;;;;;;;12.87;7.30;;;-1.30;99.90;;;-0.64;100.00;-19705.09;5009145;28;20214;-70
2021/12/27 03:21:22;;;;;;;11.03;7.47;;;-1.30;99.90;;;-0.51;100.00;-19709.56;5008879;28;20340;-71
2021/12/27 03:23:52;;;;;;;9.17;6.73;;;-1.30;99.90;;;-0.58;100.00;-19707.16;5019630;28;20290;-70
2021/12/27 03:26:21;;;;;;;9.17;6.93;;;-1.30;99.90;;;-0.68;100.00;-19703.56;5008798;28;20743;-69
2021/12/27 03:28:51;;;;;;;9.80;7.47;;;-1.30;99.90;;;-0.60;100.00;-19706.47;5015791;28;20722;-70
2021/12/27 03:31:19;;;;;;;11.73;8.17;;;-1.30;99.90;;;-0.47;100.00;-19710.75;5012099;28;20624;-71
2021/12/27 03:33:48;;;;;;;10.20;7.07;;;-1.30;99.90;;;-0.44;100.00;-19711.78;5008710;28;20199;-71
2021/12/27 03:36:17;;;;;;;10.30;7.97;;;-1.20;99.90;;;-0.47;100.00;-19710.75;5017504;28;20202;-70
2021/12/27 03:38:49;;;;;;;11.20;8.10;;;-1.10;99.90;;;-0.41;100.00;-19712.97;5011717;28;20310;-70
2021/12/27 03:41:22;;;;;;;9.97;7.10;;;-1.10;99.90;;;-0.40;100.00;-19713.16;4994322;28;20191;-71
2021/12/27 03:43:50;;;;;;;14.57;8.63;;;-1.10;99.90;;;-0.26;100.00;-19717.94;5011473;28;20539;-69
2021/12/27 03:46:18;;;;;;;12.97;7.87;;;-1.00;99.90;;;-0.36;100.00;-19714.50;5009706;28;20329;-71
2021/12/27 03:48:47;;;;;;;9.43;7.53;;;-1.00;99.90;;;-0.46;100.00;-19711.28;5011596;28;20260;-70
2021/12/27 03:51:15;;;;;;;13.47;8.57;;;-1.10;99.90;;;-0.30;100.00;-19716.75;5009797;28;20675;-70
2021/12/27 03:53:44;;;;;;;10.87;8.23;;;-1.10;99.90;;;-0.22;100.00;-19719.47;5007128;28;20685;-70
2021/12/27 03:56:12;;;;;;;10.07;8.13;;;-1.00;99.90;;;-0.18;100.00;-19720.84;5008290;28;20340;-70
2021/12/27 03:58:54;;;;;;;12.07;7.77;;;-1.00;99.90;;;-0.27;100.00;-19717.59;5008901;28;20294;-70
2021/12/27 04:01:24;;;;;;;10.73;8.27;;;-1.00;99.90;;;-0.30;100.00;-19716.75;4994475;28;20193;-70
2021/12/27 04:03:56;;;;;;;12.83;8.93;;;-1.00;99.90;;;-0.29;100.00;-19717.06;5008490;28;20190;-70
2021/12/27 04:06:27;;;;;;;10.83;8.37;;;-1.00;99.90;;;-0.36;100.00;-19714.69;5002813;28;20285;-70
2021/12/27 04:08:55;;;;;;;10.47;8.00;;;-1.00;99.90;;;-0.36;100.00;-19714.50;5021939;28;20734;-70
2021/12/27 04:11:23;;;;;;;11.63;8.23;;;-1.00;99.90;;;-0.34;100.00;-19715.38;5009145;28;20232;-70
2021/12/27 04:13:53;;;;;;;12.97;9.17;;;-0.90;99.90;;;-0.31;100.00;-19716.41;4997709;28;20243;-70
2021/12/27 04:16:21;;;;;;;13.33;8.63;;;-1.00;99.90;;;-0.28;100.00;-19717.25;5008450;28;20307;-70
2021/12/27 04:18:49;;;;;;;11.47;8.73;;;-0.90;99.90;;;-0.22;100.00;-19719.47;5008147;28;20220;-69
2021/12/27 04:21:17;;;;;;;13.13;9.00;;;-0.90;99.90;;;-0.15;100.00;-19721.88;5008861;28;20665;-70
2021/12/27 04:23:45;;;;;;;11.30;8.67;;;-0.90;99.90;;;-0.23;100.00;-19718.97;5010251;28;20541;-69
2021/12/27 04:26:13;;;;;;;13.33;9.00;;;-0.90;99.90;;;-0.24;100.00;-19718.63;5016423;28;20278;-71
2021/12/27 04:28:42;;;;;;;12.20;9.13;;;-0.90;99.90;;;-0.13;100.00;-19722.56;5009658;28;20200;-70
2021/12/27 04:31:11;;;;;;;12.40;9.17;;;-0.80;99.90;;;-0.20;100.00;-19720.16;4992643;28;20233;-70
2021/12/27 04:33:40;;;;;;;11.67;8.73;;;-0.80;99.90;;;-0.09;100.00;-19723.91;5008590;28;20200;-70
2021/12/27 04:36:08;;;;;;;12.70;9.50;;;-0.80;99.90;;;-0.07;100.00;-19724.59;5008890;28;20223;-70
2021/12/27 04:38:37;;;;;;;14.03;9.50;;;-0.80;99.90;;;-0.12;100.00;-19722.88;5008411;28;20330;-69
2021/12/27 04:41:07;;;;;;;11.47;9.23;;;-0.80;99.90;;;-0.10;100.00;-19723.56;5016741;28;20198;-69
2021/12/27 04:43:36;;;;;;;12.83;9.10;;;-0.70;99.90;;;0.02;100.00;-19727.34;5008559;28;20314;-69
2021/12/27 04:46:05;;;;;;;12.50;9.07;;;-0.70;99.90;;;-0.07;100.00;-19724.44;5008484;28;20215;-70
2021/12/27 04:48:34;;;;;;;12.13;9.00;;;-0.70;99.90;;;-0.07;100.00;-19724.44;5008483;28;20201;-68
2021/12/27 04:51:03;;;;;;;13.33;9.43;;;-0.70;99.90;;;0.09;100.00;-19729.72;5007473;28;20295;-71
2021/12/27 04:53:31;;;;;;;12.80;9.43;;;-0.60;99.90;;;0.17;100.00;-19732.47;5008409;28;20328;-69
2021/12/27 04:55:59;;;;;;;11.23;8.23;;;-0.60;99.90;;;0.17;100.00;-19732.47;5008408;28;20239;-69
2021/12/27 04:58:27;;;;;;;12.93;9.03;;;-0.60;99.90;;;0.07;100.00;-19729.06;5008862;28;20254;-71
2021/12/27 05:00:55;;;;;;;13.13;9.90;;;-0.60;99.90;;;0.13;100.00;-19731.09;5008699;28;20208;-70
2021/12/27 05:03:23;;;;;;;13.07;9.50;;;-0.50;99.90;;;0.13;100.00;-19731.09;5012286;28;20230;-72
2021/12/27 05:05:53;;;;;;;11.83;8.80;;;-0.50;99.90;;;0.17;100.00;-19732.63;5004377;28;21027;-70
2021/12/27 05:08:21;;;;;;;14.70;9.57;;;-0.50;99.90;;;0.20;100.00;-19733.50;5006379;28;20211;-70
2021/12/27 05:10:49;;;;;;;14.60;9.60;;;-0.50;99.90;;;0.32;100.00;-19737.59;5019649;28;20251;-72
2021/12/27 05:13:18;;;;;;;11.60;8.97;;;-0.50;99.90;;;0.24;100.00;-19735.03;5016555;28;20320;-71
2021/12/27 05:15:48;;;;;;;11.60;9.13;;;-0.50;99.90;;;0.23;100.00;-19734.69;5016193;28;20206;-70
2021/12/27 05:18:16;;;;;;;12.20;8.90;;;-0.50;99.90;;;0.27;100.00;-19736.06;5023309;28;20263;-69
2021/12/27 05:20:45;;;;;;;13.23;9.10;;;-0.40;99.90;;;0.31;100.00;-19737.25;5017657;28;20222;-71
2021/12/27 05:23:15;;;;;;;12.77;8.93;;;-0.40;99.90;;;0.38;100.00;-19739.66;5027717;28;20217;-71
2021/12/27 05:25:43;;;;;;;13.57;9.10;;;-0.40;99.90;;;0.41;100.00;-19740.66;5011902;28;20252;-70
2021/12/27 05:28:11;;;;;;;13.67;9.97;;;-0.30;99.90;;;0.35;100.00;-19738.78;5011316;28;20212;-69
2021/12/27 05:30:43;;;;;;;13.60;9.97;;;-0.30;99.90;;;0.47;100.00;-19742.72;5011252;28;20231;-70
2021/12/27 05:33:11;;;;;;;12.27;9.17;;;-0.30;99.90;;;0.45;100.00;-19742.22;4995648;28;20191;-70
2021/12/27 05:35:39;;;;;;;13.37;9.50;;;-0.30;99.90;;;0.41;100.00;-19740.66;5011335;28;20201;-71
2021/12/27 05:38:07;;;;;;;12.83;9.37;;;-0.30;99.90;;;0.39;100.00;-19740.00;5011686;28;20269;-69
2021/12/27 05:40:37;;;;;;;15.37;10.03;;;-0.30;99.90;;;0.47;100.00;-19742.72;5011603;28;20207;-72
2021/12/27 05:43:07;;;;;;;12.93;9.93;;;-0.30;99.90;;;0.45;100.00;-19742.22;5011715;28;20207;-72
2021/12/27 05:45:36;;;;;;;12.83;9.87;;;-0.30;99.90;;;0.47;100.00;-19742.91;5011641;28;20222;-71
2021/12/27 05:48:07;;;;;;;14.63;10.23;;;-0.20;99.90;;;0.60;100.00;-19747.34;5011428;28;20221;-71
2021/12/27 05:50:35;;;;;;;12.53;9.50;;;-0.20;99.90;;;0.55;100.00;-19745.47;5011728;28;20269;-70
2021/12/27 05:53:04;;;;;;;13.53;9.43;;;-0.20;99.90;;;0.54;100.00;-19745.28;5011695;28;20318;-70
2021/12/27 05:55:32;;;;;;;14.03;10.30;;;-0.20;99.90;;;0.57;100.00;-19746.31;5011420;28;20627;-69
2021/12/27 05:58:01;;;;;;;11.70;9.23;;;-0.10;99.90;;;0.54;100.00;-19745.28;5011406;28;20238;-71
2021/12/27 06:00:30;;;;;;;13.70;10.13;;;-0.10;99.90;;;0.54;100.00;-19745.13;5010552;28;20237;-70
2021/12/27 06:02:58;;;;;;;14.70;10.10;;;-0.10;99.90;;;0.59;100.00;-19746.81;5011301;28;20549;-71
2021/12/27 06:05:26;;;;;;;13.27;9.20;;;-0.10;99.90;;;0.54;100.00;-19745.13;5010880;28;20199;-71
2021/12/27 06:07:55;;;;;;;13.60;10.27;;;-0.10;99.90;;;0.72;100.00;-19751.44;5001601;28;20294;-71
2021/12/27 06:10:23;;;;;;;12.13;9.23;;;-0.10;99.90;;;0.70;100.00;-19750.75;5013290;28;20851;-71
2021/12/27 06:12:51;;;;;;;12.43;9.30;;;-0.10;99.90;;;0.78;100.00;-19753.50;5036078;28;20207;-71
2021/12/27 06:15:21;;;;;;;13.13;9.00;;;0.00;99.90;;;0.70;100.00;-19750.59;5011968;28;20598;-71
2021/12/27 06:17:49;;;;;;;13.27;9.67;;;0.00;99.90;;;0.76;100.00;-19752.81;5010980;28;20236;-70
2021/12/27 06:20:18;;;;;;;13.67;10.20;;;0.00;99.90;;;0.73;100.00;-19751.78;5010777;28;20257;-72
2021/12/27 06:22:51;;;;;;;14.33;10.50;;;0.00;99.90;;;0.74;100.00;-19751.97;5011642;28;20202;-71
2021/12/27 06:25:19;;;;;;;12.37;9.80;;;0.00;99.90;;;0.77;100.00;-19752.97;5011174;28;20217;-70
2021/12/27 06:27:48;;;;;;;15.43;9.40;;;0.00;99.90;;;0.71;100.00;-19751.09;5011116;28;20202;-72
2021/12/27 06:30:18;;;;;;;12.60;9.33;;;0.00;99.90;;;0.86;100.00;-19756.06;5003407;28;20560;-71
2021/12/27 06:32:47;;;;;;;14.07;10.20;;;0.00;99.90;;;0.84;100.00;-19755.56;5010957;28;20199;-70
2021/12/27 06:35:17;;;;;;;14.03;10.07;;;0.10;99.90;;;0.81;100.00;-19754.53;5011538;28;20611;-72
2021/12/27 06:37:48;;;;;;;16.43;10.40;;;0.10;99.90;;;0.90;100.00;-19757.44;5010969;28;20240;-72
2021/12/27 06:40:17;;;;;;;15.20;10.17;;;0.10;99.90;;;0.90;100.00;-19757.44;5010759;28;20298;-70
2021/12/27 06:42:47;;;;;;;15.07;9.97;;;0.10;99.90;;;0.85;100.00;-19755.88;5010047;28;20362;-71
2021/12/27 06:45:15;;;;;;;11.77;9.33;;;0.10;99.90;;;0.85;100.00;-19755.88;5010543;28;20199;-71
2021/12/27 06:47:44;;;;;;;14.27;10.07;;;0.10;99.90;;;0.87;100.00;-19756.41;5010250;28;20199;-72
2021/12/27 06:50:14;;;;;;;14.20;10.23;;;0.10;99.90;;;0.94;100.00;-19758.78;5009965;28;20237;-72
2021/12/27 06:52:43;;;;;;;13.43;9.53;;;0.20;99.90;;;0.88;100.00;-19756.75;5009876;28;20638;-71
2021/12/27 06:55:13;;;;;;;13.10;9.80;;;0.20;99.90;;;0.85;100.00;-19755.88;4997385;28;20231;-72
2021/12/27 06:57:41;;;;;;;12.23;9.47;;;0.20;99.90;;;0.87;100.00;-19756.56;5010138;28;20283;-71
2021/12/27 07:00:14;;;;;;;15.07;9.83;;;0.10;99.90;;;0.85;100.00;-19755.88;5009526;28;20246;-73
2021/12/27 07:02:43;;;;;;;13.03;9.70;;;0.10;99.90;;;0.89;100.00;-19757.25;5008803;28;20232;-72
2021/12/27 07:05:14;;;;;;;14.27;9.60;;;0.20;99.90;;;0.96;100.00;-19759.47;5007281;28;20274;-70
2021/12/27 07:07:42;;;;;;;14.43;10.00;;;0.20;99.90;;;1.07;100.00;-19763.41;5008753;28;20231;-71
2021/12/27 07:10:15;;;;;;;13.47;9.40;;;0.30;99.90;;;1.01;100.00;-19761.19;5009884;28;20678;-71
2021/12/27 07:12:44;;;;;;;14.23;9.53;;;0.30;99.90;;;0.99;100.00;-19760.69;5009006;28;20701;-71
2021/12/27 07:15:12;;;;;;;14.47;9.90;;;0.30;99.90;;;0.99;100.00;-19760.69;5006779;28;20289;-71
2021/12/27 07:17:41;;;;;;;13.80;10.27;;;0.30;99.90;;;1.10;100.00;-19764.25;5012630;28;20262;-72
2021/12/27 07:20:11;;;;;;;14.50;9.87;;;0.30;99.90;;;1.08;100.00;-19763.59;5015379;28;20310;-71
2021/12/27 07:22:40;;;;;;;13.70;9.97;;;0.30;99.90;;;1.08;100.00;-19763.59;5009624;28;20226;-71
2021/12/27 07:25:09;;;;;;;15.73;10.67;;;0.30;99.90;;;1.17;100.00;-19766.84;5009548;28;20230;-71
2021/12/27 07:27:37;;;;;;;15.00;10.07;;;0.30;99.90;;;1.16;100.00;-19766.31;5009500;28;20531;-71
2021/12/27 07:30:11;;;;;;;14.03;9.43;;;0.40;99.90;;;1.14;100.00;-19765.63;5008249;28;20324;-71
2021/12/27 07:32:40;;;;;;;14.03;10.40;;;0.40;99.90;;;1.11;100.00;-19764.78;5007330;28;20190;-71
2021/12/27 07:35:10;;;;;;;14.87;9.77;;;0.40;99.90;;;1.16;100.00;-19766.31;5009700;28;20199;-73
2021/12/27 07:37:41;;;;;;;15.07;9.93;;;0.40;99.90;;;1.23;100.00;-19768.72;5011247;28;20222;-72
2021/12/27 07:40:12;;;;;;;13.87;10.07;;;0.40;99.90;;;1.34;100.00;-19772.31;5012317;28;20261;-71
2021/12/27 07:42:40;;;;;;;16.13;10.03;;;0.50;99.90;;;1.25;100.00;-19769.41;5012057;28;20609;-72
2021/12/27 07:45:10;;;;;;;14.60;10.20;;;0.50;99.90;;;1.34;100.00;-19772.31;5012641;28;20215;-73
2021/12/27 07:47:38;;;;;;;15.43;9.97;;;0.50;99.90;;;1.25;100.00;-19769.41;5012394;28;20234;-71
2021/12/27 07:50:08;;;;;;;14.90;10.63;;;0.50;99.90;;;1.24;100.00;-19769.22;5013168;28;20203;-72
2021/12/27 07:52:36;;;;;;;13.03;9.80;;;0.50;99.90;;;1.13;100.00;-19765.28;5012795;28;20195;-71
2021/12/27 07:55:08;;;;;;;14.50;9.67;;;0.50;99.90;;;1.13;100.00;-19765.28;5011726;28;20313;-71
2021/12/27 07:57:36;;;;;;;15.57;10.47;;;0.50;99.90;;;1.22;100.00;-19768.38;5007797;28;20187;-71
2021/12/27 08:00:08;;;;;;;17.77;11.43;;;0.50;99.90;;;1.23;100.00;-19768.72;5012146;28;20246;-71
2021/12/27 08:02:37;;;;;;;14.70;10.47;;;0.50;99.90;;;1.26;100.00;-19769.75;5010203;28;20195;-72
2021/12/27 08:05:06;;;;;;;16.30;11.20;;;0.60;99.90;;;1.25;100.00;-19769.41;5011944;28;20290;-70
2021/12/27 08:07:34;;;;;;;15.93;11.00;;;0.50;99.90;;;1.29;100.00;-19770.75;5011836;28;20322;-71
2021/12/27 08:10:04;;;;;;;15.70;10.80;;;0.60;99.90;;;1.21;100.00;-19768.03;5013074;28;20237;-72
2021/12/27 08:12:34;;;;;;;17.53;11.10;;;0.50;99.90;;;1.20;100.00;-19767.69;5011486;28;20270;-72
2021/12/27 08:15:02;;;;;;;16.93;11.17;;;0.60;99.90;;;1.26;100.00;-19769.75;5014296;28;20218;-71
2021/12/27 08:17:30;;;;;;;18.40;11.03;;;0.60;99.90;;;1.29;100.00;-19770.59;5012658;28;20286;-73
2021/12/27 08:19:58;;;;;;;15.63;10.83;;;0.60;99.90;;;1.44;100.00;-19775.72;5012931;28;20224;-73
2021/12/27 08:22:27;;;;;;;16.10;10.63;;;0.60;99.90;;;1.40;100.00;-19774.53;5012610;28;20198;-72
2021/12/27 08:24:55;;;;;;;17.30;11.50;;;0.70;99.90;;;1.39;100.00;-19774.19;5012517;28;20207;-71
2021/12/27 08:27:26;;;;;;;18.83;11.60;;;0.70;99.90;;;1.45;100.00;-19776.25;5013417;28;20601;-71
2021/12/27 08:29:58;;;;;;;17.60;11.70;;;0.70;99.90;;;1.48;100.00;-19777.09;5015106;28;20195;-71
2021/12/27 08:32:26;;;;;;;18.37;11.73;;;0.80;99.90;;;1.69;100.00;-19784.44;5015353;28;20187;-72
2021/12/27 08:34:54;;;;;;;17.10;11.43;;;0.80;99.90;;;1.71;100.00;-19784.97;5009263;28;20295;-72
2021/12/27 08:37:22;;;;;;;17.00;11.67;;;0.90;99.90;;;1.60;100.00;-19781.38;5011713;28;20191;-72
2021/12/27 08:39:50;;;;;;;17.40;11.50;;;0.90;99.90;;;1.63;100.00;-19782.22;5011277;28;20219;-71
2021/12/27 08:42:23;;;;;;;16.90;10.97;;;0.90;99.90;;;1.72;100.00;-19785.28;5013105;28;20275;-70
2021/12/27 08:44:52;;;;;;;15.73;11.60;;;1.00;99.90;;;1.81;100.00;-19788.53;5015592;28;20269;-71
2021/12/27 08:47:22;;;;;;;17.63;11.93;;;1.00;99.90;;;1.77;100.00;-19787.00;5015293;28;20663;-71
2021/12/27 08:49:50;;;;;;;19.17;11.67;;;1.00;99.90;;;1.75;100.00;-19786.31;5016416;28;20295;-72
2021/12/27 08:52:32;;;;;;;17.73;11.10;;;1.00;99.90;;;1.83;100.00;-19789.06;5016740;28;20298;-72
2021/12/27 08:55:02;;;;;;;16.23;11.93;;;1.10;99.90;;;1.89;100.00;-19791.09;5015868;28;20254;-72
2021/12/27 08:57:31;;;;;;;17.17;12.10;;;1.10;99.90;;;1.96;100.00;-19793.66;5016336;28;20206;-61
2021/12/27 08:59:59;;;;;;;16.57;11.97;;;1.20;99.90;;;1.94;100.00;-19793.00;5015279;28;20286;-60
2021/12/27 09:02:29;;;;;;;16.37;12.10;;;1.20;99.90;;;1.88;100.00;-19790.94;5015358;28;20778;-61
2021/12/27 09:04:57;;;;;;;17.57;11.83;;;1.10;99.90;;;1.92;100.00;-19792.31;5015079;28;20207;-60
2021/12/27 09:07:25;;;;;;;17.20;12.17;;;1.20;99.90;;;1.90;100.00;-19791.63;5015708;28;20317;-61
2021/12/27 09:09:54;;;;;;;19.50;13.13;;;1.20;99.90;;;1.89;100.00;-19791.28;5017315;28;20291;-61
2021/12/27 09:12:22;;;;;;;17.47;13.07;;;1.20;99.90;;;1.97;100.00;-19794.00;5035465;28;20222;-61
2021/12/27 09:14:51;;;;;;;19.70;13.33;;;1.20;99.90;;;1.97;100.00;-19794.00;5035435;28;20213;-60
2021/12/27 09:17:19;;;;;;;18.67;11.87;;;1.20;99.90;;;2.00;100.00;-19794.88;5034983;28;20224;-60
2021/12/27 09:19:49;;;;;;;18.97;12.13;;;1.20;99.90;;;2.03;100.00;-19796.06;5035273;28;20206;-61
2021/12/27 09:22:18;;;;;;;18.23;11.80;;;1.30;99.90;;;2.23;100.00;-19802.72;5035234;28;20248;-61
2021/12/27 09:24:47;;;;;;;17.90;12.17;;;1.40;99.90;;;2.45;100.00;-19810.25;5035138;28;20732;-62
2021/12/27 09:27:15;;;;;;;18.10;11.87;;;1.60;99.90;;;2.78;100.00;-19821.38;5035791;28;20202;-61
2021/12/27 09:29:43;;;;;;;17.30;11.87;;;1.70;99.90;;;3.03;100.00;-19830.09;5019430;28;20231;-60
2021/12/27 09:32:12;;;;;;;20.40;13.07;;;1.90;99.90;;;3.16;100.00;-19834.34;5014020;28;20194;-61
2021/12/27 09:34:41;;;;;;;20.30;12.03;;;2.10;99.90;;;3.40;100.00;-19842.56;5014736;28;20295;-61
2021/12/27 09:37:11;;;;;;;17.63;11.23;;;2.30;99.90;;;3.63;100.00;-19850.59;5012092;28;20200;-60
2021/12/27 09:39:39;;;;;;;16.13;11.73;;;2.50;99.90;;;3.74;100.00;-19854.19;5014039;28;20242;-61
2021/12/27 09:42:07;;;;;;;16.73;10.77;;;2.60;99.90;;;3.61;100.00;-19849.91;5015223;28;20254;-61
2021/12/27 09:44:35;;;;;;;15.97;11.07;;;2.70;99.90;;;3.55;100.00;-19847.88;5014301;28;20199;-61
2021/12/27 09:47:04;;;;;;;17.37;11.57;;;2.60;99.90;;;3.54;100.00;-19847.34;5013002;28;20770;-61
2021/12/27 09:49:33;;;;;;;15.43;10.93;;;2.60;99.90;;;3.48;100.00;-19845.47;5012672;28;20229;-61
2021/12/27 09:52:01;;;;;;;17.43;10.97;;;2.60;99.90;;;3.57;100.00;-19848.38;5011472;28;20213;-60
2021/12/27 09:54:31;;;;;;;15.47;11.70;;;2.60;99.90;;;3.40;100.00;-19842.72;5012565;28;20982;-61
2021/12/27 09:56:59;;;;;;;17.17;11.90;;;2.50;99.90;;;3.33;100.00;-19840.19;5013372;28;20610;-61
2021/12/27 09:59:27;;;;;;;16.30;11.00;;;2.50;99.90;;;3.34;100.00;-19840.50;5012987;28;20224;-61
2021/12/27 10:01:56;;;;;;;14.20;10.63;;;2.50;99.90;;;3.51;100.00;-19846.31;5011896;28;20667;-61
2021/12/27 10:04:24;;;;;;;16.70;11.27;;;2.50;99.90;;;3.48;100.00;-19845.47;5013436;28;20209;-61
2021/12/27 10:06:53;;;;;;;14.87;11.20;;;2.40;99.90;;;3.47;100.00;-19844.97;5013119;28;20655;-61
2021/12/27 10:09:21;;;;;;;18.60;12.07;;;2.40;99.90;;;3.52;100.00;-19846.66;5012276;28;20283;-61
2021/12/27 10:11:51;;;;;;;18.50;13.03;;;2.50;99.90;;;3.45;100.00;-19844.28;5012630;28;20307;-61
2021/12/27 10:14:24;;;;;;;22.23;13.73;;;2.50;99.90;;;3.40;100.00;-19842.72;5014202;28;20660;-61
2021/12/27 10:16:56;;;;;;;18.83;11.60;;;2.50;99.90;;;3.47;100.00;-19844.97;5013249;28;20703;-61